sensor_id;sensor_type;location;lat;lon;timestamp;pressure;altitude;pressure_sealevel;temperature;humidity
9229;BME280;4649;42.644;23.284;2023-05-22T01:16:08;92867.16;;;12.99;100.00
9229;BME280;4649;42.644;23.284;2023-05-22T01:19:51;92659.06;;;11.35;100.00
9229;BME280;4649;42.644;23.284;2023-05-22T03:59:32;92812.41;;;13.32;100.00
9229;BME280;4649;42.644;23.284;2023-05-22T04:02:18;92844.00;;;13.72;100.00
9229;BME280;4649;42.644;23.284;2023-05-22T04:05:40;92763.63;;;13.39;100.00
9229;BME280;4649;42.644;23.284;2023-05-22T04:58:55;92860.66;;;18.48;87.02
9229;BME280;4649;42.644;23.284;2023-05-22T05:01:24;92831.94;;;19.24;81.75
9229;BME280;4649;42.644;23.284;2023-05-22T05:03:52;92850.84;;;20.20;76.95
9229;BME280;4649;42.644;23.284;2023-05-22T05:06:19;92794.28;;;20.42;71.07
9229;BME280;4649;42.644;23.284;2023-05-22T05:08:47;92833.59;;;21.25;65.51
9229;BME280;4649;42.644;23.284;2023-05-22T05:11:14;92782.84;;;21.18;61.60
9229;BME280;4649;42.644;23.284;2023-05-22T05:13:41;92807.94;;;21.22;59.30
9229;BME280;4649;42.644;23.284;2023-05-22T05:16:09;92857.53;;;21.90;58.22
9229;BME280;4649;42.644;23.284;2023-05-22T05:18:36;92861.78;;;22.17;60.02
9229;BME280;4649;42.644;23.284;2023-05-22T05:21:03;92862.94;;;22.31;57.03
9229;BME280;4649;42.644;23.284;2023-05-22T05:23:30;92883.16;;;22.60;56.53
9229;BME280;4649;42.644;23.284;2023-05-22T05:25:57;92815.38;;;22.13;55.62
9229;BME280;4649;42.644;23.284;2023-05-22T05:28:23;92877.78;;;22.88;56.85
9229;BME280;4649;42.644;23.284;2023-05-22T05:30:50;92743.34;;;22.09;54.69
9229;BME280;4649;42.644;23.284;2023-05-22T05:33:18;92873.03;;;23.43;53.83
9229;BME280;4649;42.644;23.284;2023-05-22T05:35:45;92813.09;;;23.27;51.97
9229;BME280;4649;42.644;23.284;2023-05-22T05:38:14;92800.50;;;22.88;51.02
9229;BME280;4649;42.644;23.284;2023-05-22T05:40:42;92887.28;;;23.04;55.00
9229;BME280;4649;42.644;23.284;2023-05-22T05:43:08;92778.94;;;22.41;54.05
9229;BME280;4649;42.644;23.284;2023-05-22T05:45:35;92792.88;;;22.17;54.03
9229;BME280;4649;42.644;23.284;2023-05-22T05:48:02;92842.94;;;22.13;52.23
9229;BME280;4649;42.644;23.284;2023-05-22T05:50:31;92768.81;;;21.41;54.39
9229;BME280;4649;42.644;23.284;2023-05-22T05:52:57;92877.22;;;22.37;54.85
9229;BME280;4649;42.644;23.284;2023-05-22T05:55:25;92866.53;;;21.90;54.15
9229;BME280;4649;42.644;23.284;2023-05-22T05:57:52;92852.84;;;21.66;55.55
9229;BME280;4649;42.644;23.284;2023-05-22T06:00:20;92867.25;;;22.07;56.16
9229;BME280;4649;42.644;23.284;2023-05-22T06:02:46;92860.88;;;21.88;53.79
9229;BME280;4649;42.644;23.284;2023-05-22T06:05:13;92864.34;;;21.89;52.46
9229;BME280;4649;42.644;23.284;2023-05-22T06:07:44;92833.31;;;20.40;54.04
9229;BME280;4649;42.644;23.284;2023-05-22T06:10:12;92892.06;;;21.74;51.88
9229;BME280;4649;42.644;23.284;2023-05-22T06:12:39;92887.50;;;21.52;50.93
9229;BME280;4649;42.644;23.284;2023-05-22T06:15:06;92873.03;;;21.68;52.03
9229;BME280;4649;42.644;23.284;2023-05-22T06:17:34;92783.66;;;20.87;53.05
9229;BME280;4649;42.644;23.284;2023-05-22T06:20:01;92858.59;;;20.71;52.38
9229;BME280;4649;42.644;23.284;2023-05-22T06:22:29;92892.50;;;21.46;51.33
9229;BME280;4649;42.644;23.284;2023-05-22T06:24:57;92719.78;;;20.72;51.63
9229;BME280;4649;42.644;23.284;2023-05-22T06:27:24;92840.81;;;21.37;48.94
9229;BME280;4649;42.644;23.284;2023-05-22T06:29:52;92887.13;;;21.31;50.43
9229;BME280;4649;42.644;23.284;2023-05-22T06:32:21;92755.56;;;19.91;50.19
9229;BME280;4649;42.644;23.284;2023-05-22T06:38:41;92882.31;;;20.27;50.92
9229;BME280;4649;42.644;23.284;2023-05-22T06:44:48;92858.13;;;19.86;49.27
9229;BME280;4649;42.644;23.284;2023-05-22T06:47:16;92774.41;;;19.48;49.92
9229;BME280;4649;42.644;23.284;2023-05-22T06:49:42;92745.75;;;19.27;49.75
9229;BME280;4649;42.644;23.284;2023-05-22T06:52:09;92873.78;;;20.47;49.30
9229;BME280;4649;42.644;23.284;2023-05-22T06:54:41;92881.59;;;20.26;49.43
9229;BME280;4649;42.644;23.284;2023-05-22T06:57:09;92827.56;;;20.21;47.52
9229;BME280;4649;42.644;23.284;2023-05-22T06:59:59;92788.94;;;19.34;47.71
9229;BME280;4649;42.644;23.284;2023-05-22T07:06:00;92774.56;;;19.57;47.77
9229;BME280;4649;42.644;23.284;2023-05-22T07:08:53;92893.28;;;20.34;46.78
9229;BME280;4649;42.644;23.284;2023-05-22T07:17:41;92888.59;;;20.83;48.88
9229;BME280;4649;42.644;23.284;2023-05-22T07:20:10;92857.19;;;20.94;45.02
9229;BME280;4649;42.644;23.284;2023-05-22T07:32:06;92884.56;;;20.14;52.12
9229;BME280;4649;42.644;23.284;2023-05-22T07:34:35;92760.66;;;19.56;51.31
9229;BME280;4649;42.644;23.284;2023-05-22T07:37:05;92853.44;;;20.43;50.73
9229;BME280;4649;42.644;23.284;2023-05-22T07:39:32;92692.59;;;19.54;47.87
9229;BME280;4649;42.644;23.284;2023-05-22T07:41:59;92885.94;;;21.00;47.69
9229;BME280;4649;42.644;23.284;2023-05-22T07:44:31;92771.06;;;20.04;48.57
9229;BME280;4649;42.644;23.284;2023-05-22T07:46:58;92808.22;;;20.05;53.01
9229;BME280;4649;42.644;23.284;2023-05-22T07:49:25;92880.72;;;20.56;49.23
9229;BME280;4649;42.644;23.284;2023-05-22T07:51:54;92731.25;;;19.80;47.51
9229;BME280;4649;42.644;23.284;2023-05-22T07:54:21;92761.88;;;20.09;48.57
9229;BME280;4649;42.644;23.284;2023-05-22T07:56:52;92896.47;;;21.11;47.98
9229;BME280;4649;42.644;23.284;2023-05-22T07:59:20;92813.19;;;20.62;49.49
9229;BME280;4649;42.644;23.284;2023-05-22T08:01:48;92890.22;;;21.35;48.53
9229;BME280;4649;42.644;23.284;2023-05-22T08:04:14;92886.31;;;21.79;50.57
9229;BME280;4649;42.644;23.284;2023-05-22T08:06:42;92893.44;;;21.99;46.86
9229;BME280;4649;42.644;23.284;2023-05-22T08:09:13;92843.13;;;21.65;47.38
9229;BME280;4649;42.644;23.284;2023-05-22T08:11:41;92885.41;;;21.60;47.83
9229;BME280;4649;42.644;23.284;2023-05-22T08:14:08;92792.56;;;20.22;49.41
9229;BME280;4649;42.644;23.284;2023-05-22T08:16:35;92768.16;;;19.55;51.53
9229;BME280;4649;42.644;23.284;2023-05-22T08:19:09;92668.19;;;18.72;51.99
9229;BME280;4649;42.644;23.284;2023-05-22T08:21:38;92709.06;;;19.54;50.17
9229;BME280;4649;42.644;23.284;2023-05-22T08:24:06;92767.47;;;19.40;49.96
9229;BME280;4649;42.644;23.284;2023-05-22T08:26:34;92831.94;;;21.05;47.71
9229;BME280;4649;42.644;23.284;2023-05-22T08:29:01;92898.13;;;22.23;44.69
9229;BME280;4649;42.644;23.284;2023-05-22T08:31:28;92850.78;;;22.96;43.32
9229;BME280;4649;42.644;23.284;2023-05-22T08:33:55;92824.31;;;23.29;42.15
9229;BME280;4649;42.644;23.284;2023-05-22T08:36:26;92888.72;;;21.75;42.84
9229;BME280;4649;42.644;23.284;2023-05-22T08:38:54;92754.00;;;20.37;44.55
9229;BME280;4649;42.644;23.284;2023-05-22T08:41:21;92892.13;;;22.17;41.86
9229;BME280;4649;42.644;23.284;2023-05-22T08:43:50;92850.53;;;20.73;44.21
9229;BME280;4649;42.644;23.284;2023-05-22T08:46:17;92839.63;;;20.58;44.28
9229;BME280;4649;42.644;23.284;2023-05-22T08:48:47;92888.94;;;20.24;44.93
9229;BME280;4649;42.644;23.284;2023-05-22T08:51:17;92821.63;;;20.01;45.42
9229;BME280;4649;42.644;23.284;2023-05-22T08:53:45;92699.81;;;18.73;48.07
9229;BME280;4649;42.644;23.284;2023-05-22T08:56:14;92819.91;;;20.44;47.31
9229;BME280;4649;42.644;23.284;2023-05-22T08:58:41;92770.44;;;20.44;45.10
9229;BME280;4649;42.644;23.284;2023-05-22T09:01:10;92886.94;;;21.29;45.89
9229;BME280;4649;42.644;23.284;2023-05-22T09:03:37;92849.25;;;20.98;43.31
9229;BME280;4649;42.644;23.284;2023-05-22T09:06:05;92821.78;;;20.42;43.75
9229;BME280;4649;42.644;23.284;2023-05-22T09:12:13;92715.47;;;20.20;39.83
9229;BME280;4649;42.644;23.284;2023-05-22T09:14:42;92878.13;;;21.55;39.44
9229;BME280;4649;42.644;23.284;2023-05-22T09:17:14;92832.22;;;21.33;37.66
9229;BME280;4649;42.644;23.284;2023-05-22T09:19:42;92856.78;;;21.39;38.85
9229;BME280;4649;42.644;23.284;2023-05-22T09:22:12;92792.53;;;20.78;39.25
9229;BME280;4649;42.644;23.284;2023-05-22T09:24:40;92812.97;;;20.43;39.60
9229;BME280;4649;42.644;23.284;2023-05-22T09:27:08;92867.16;;;21.06;39.80
9229;BME280;4649;42.644;23.284;2023-05-22T09:29:54;92806.53;;;21.14;38.31
9229;BME280;4649;42.644;23.284;2023-05-22T09:32:26;92860.88;;;20.33;40.52
9229;BME280;4649;42.644;23.284;2023-05-22T09:35:34;92658.91;;;18.53;41.22
9229;BME280;4649;42.644;23.284;2023-05-22T09:41:49;92882.47;;;19.90;40.83
9229;BME280;4649;42.644;23.284;2023-05-22T09:44:30;92885.66;;;20.18;39.45
9229;BME280;4649;42.644;23.284;2023-05-22T09:50:18;92764.19;;;19.80;40.02
9229;BME280;4649;42.644;23.284;2023-05-22T09:52:45;92751.78;;;19.33;40.88
9229;BME280;4649;42.644;23.284;2023-05-22T09:55:18;92779.69;;;19.54;41.16
9229;BME280;4649;42.644;23.284;2023-05-22T10:04:53;92888.44;;;19.34;42.59
9229;BME280;4649;42.644;23.284;2023-05-22T10:18:25;92714.06;;;18.72;43.08
9229;BME280;4649;42.644;23.284;2023-05-22T10:20:52;92809.06;;;19.75;45.29
9229;BME280;4649;42.644;23.284;2023-05-22T10:23:20;92882.47;;;20.61;44.74
9229;BME280;4649;42.644;23.284;2023-05-22T10:25:47;92875.19;;;20.87;43.06
9229;BME280;4649;42.644;23.284;2023-05-22T10:28:21;92743.66;;;20.20;42.55
9229;BME280;4649;42.644;23.284;2023-05-22T10:30:55;92851.66;;;21.35;41.58
9229;BME280;4649;42.644;23.284;2023-05-22T10:33:28;92868.56;;;21.56;47.47
9229;BME280;4649;42.644;23.284;2023-05-22T10:36:01;92772.47;;;20.61;48.19
9229;BME280;4649;42.644;23.284;2023-05-22T10:38:43;92890.00;;;21.16;48.38
9229;BME280;4649;42.644;23.284;2023-05-22T14:55:10;92828.47;;;19.77;58.50
